Flight Track Log - Related Links

Times and Time Zones

All times are in EDT time to prevent confusion due to time zone crossing. See the C-FYEV flight status page for this flight to view local times or setup timezone preferences in your user account.

Time Position Orientation Groundspeed Altitude Reporting Facility
EDT Latitude Longitude Course Direction KTS MPH feet Rate Location/Type
01:17AM 42.1500 -87.9089 64° Northeast 145 167 21,000  Level Chicago Center
01:18AM 42.1664 -87.8644 64° Northeast 158 182 3,200 -8,150 Descending Chicago Center
01:19AM 42.1675 -87.8117 88° East 145 167 4,700 1,388 Climbing Chicago Center
01:20AM 42.1639 -87.7542 95° East 151 174 6,000 1,289 Climbing Chicago Center
01:21AM 42.1644 -87.7006 89° East 145 167 7,300 1,250 Climbing Chicago Center
01:22AM 42.1647 -87.6458 90° East 144 166 8,500 1,100 Climbing Chicago Center
01:23AM 42.1642 -87.5925 91° East 144 166 9,500 1,000 Climbing Chicago Center
01:24AM 42.1661 -87.5353 87° East 150 173 10,500 992 Climbing Chicago Center
01:25AM 42.1711 -87.4797 83° East 151 174 11,500 992 Climbing Chicago Center
01:26AM 42.1761 -87.4214 83° East 153 176 12,500 950 Climbing Chicago Center
01:27AM 42.1800 -87.3636 85° East 157 181 13,400 850 Climbing Chicago Center
01:28AM 42.1853 -87.3031 83° East 162 186 14,200 800 Climbing Chicago Center
01:29AM 42.1886 -87.2436 86° East 161 185 15,000 744 Climbing Chicago Center
01:30AM 42.1936 -87.1822 84° East 162 186 15,700 694 Climbing Chicago Center
01:31AM 42.1983 -87.1192 84° East 168 193 16,400 700 Climbing Chicago Center
01:32AM 42.2039 -87.0517 84° East 169 194 17,100 650 Climbing Chicago Center
01:33AM 42.2072 -86.9908 86° East 169 194 17,700 550 Climbing Chicago Center
01:34AM 42.2122 -86.9253 84° East 175 201 18,200 500 Climbing Chicago Center
01:35AM 42.2164 -86.8561 85° East 183 211 18,700 545 Climbing Chicago Center
01:36AM 42.2219 -86.7936 83° East 173 199 19,300 496 Climbing Chicago Center
01:37AM 42.2264 -86.7325 84° East 166 191 19,700 450 Climbing Chicago Center
01:38AM 42.2311 -86.6744 84° East 166 191 20,200 450 Climbing Chicago Center
01:39AM 42.2356 -86.6106 85° East 168 193 20,600 400 Climbing Chicago Center
01:40AM 42.2394 -86.5472 85° East 168 193 21,000 200 Climbing Chicago Center
01:41AM 42.2433 -86.4756 86° East 188 216 21,000  Level Chicago Center
01:42AM 42.2492 -86.3967 84° East 206 237 21,000  Level Chicago Center
01:43AM 42.2564 -86.3164 83° East 212 244 21,000  Level Chicago Center
01:44AM 42.2614 -86.2350 85° East 216 249 21,000  Level Chicago Center
01:45AM 42.2669 -86.1525 85° East 219 252 21,000  Level Chicago Center
01:46AM 42.2722 -86.0692 85° East 219 252 21,000  Level Chicago Center
01:47AM 42.2783 -85.9844 84° East 226 260 21,000  Level Chicago Center
01:48AM 42.2836 -85.8911 86° East 225 259 21,000  Level Chicago Center
01:49AM 42.2894 -85.8064 85° East 225 259 21,000  Level Chicago Center
01:50AM 42.2950 -85.7225 85° East 225 259 21,000  Level Chicago Center
01:51AM 42.3006 -85.6392 85° East 225 259 21,000  Level Chicago Center
01:52AM 42.3053 -85.5544 86° East 225 259 21,000  Level Chicago Center
01:53AM 42.3108 -85.4714 85° East 225 259 21,000  Level Chicago Center
01:54AM 42.3156 -85.3872 86° East 225 259 21,000  Level Chicago Center
01:55AM 42.3203 -85.3044 86° East 225 259 21,000  Level Chicago Center
01:56AM 42.3256 -85.2200 85° East 225 259 21,000  Level Chicago Center
01:57AM 42.3311 -85.1342 85° East 225 259 21,000  Level Chicago Center
01:58AM 42.3353 -85.0539 86° East 224 258 21,000  Level Chicago Center
01:59AM 42.3403 -84.9714 85° East 223 257 21,000  Level Chicago Center
02:00AM 42.3453 -84.8892 85° East 223 257 21,000  Level Chicago Center
02:01AM 42.3497 -84.8064 86° East 223 257 21,000  Level Chicago Center
02:02AM 42.3689 -84.7278 72° East 220 253 21,000  Level Chicago Center
02:03AM 42.3853 -84.6492 74° East 218 251 21,000  Level Chicago Center
02:04AM 42.4006 -84.5772 74° East 220 253 21,000  Level Cleveland Center
02:05AM 42.4153 -84.4983 76° East 220 253 21,000  Level Cleveland Center
02:06AM 42.4311 -84.4183 75° East 219 252 21,000  Level Cleveland Center
02:07AM 42.4475 -84.3392 74° East 220 253 21,000  Level Cleveland Center
02:08AM 42.4639 -84.2575 75° East 221 254 21,000  Level Cleveland Center
02:09AM 42.4797 -84.1783 75° East 221 254 21,000  Level Cleveland Center
02:10AM 42.4956 -84.0975 75° East 221 254 21,000  Level Cleveland Center
02:11AM 42.5119 -84.0164 75° East 221 254 21,000  Level Cleveland Center
02:12AM 42.5275 -83.9358 75° East 221 254 21,000  Level Cleveland Center
02:13AM 42.5433 -83.8547 75° East 222 255 21,000  Level Cleveland Center
02:14AM 42.5592 -83.7731 75° East 222 255 21,000  Level Cleveland Center
02:15AM 42.5756 -83.6928 74° East 222 255 21,000  Level Cleveland Center
02:16AM 42.5917 -83.6122 75° East 221 254 21,000  Level Cleveland Center
02:17AM 42.6072 -83.5308 75° East 222 255 21,000  Level Cleveland Center
02:18AM 42.6219 -83.4492 76° East 222 255 21,000  Level Cleveland Center
02:19AM 42.6386 -83.3667 75° East 222 255 21,000  Level Cleveland Center
02:20AM 42.6542 -83.2839 76° East 222 255 21,000  Level Cleveland Center
02:21AM 42.6697 -83.2003 76° East 224 258 21,000  Level Cleveland Center
02:22AM 42.6853 -83.1164 76° East 228 262 21,000  Level Cleveland Center
02:23AM 42.7014 -83.0333 75° East 228 262 21,000  Level Cleveland Center
02:24AM 42.7172 -82.9494 76° East 228 262 21,000  Level Cleveland Center
02:25AM 42.7336 -82.8656 75° East 229 264 21,000  Level Cleveland Center
02:26AM 42.7478 -82.7814 77° East 229 264 21,000  Level Cleveland Center
02:27AM 42.7647 -82.6975 75° East 229 264 21,000  Level Cleveland Center
02:28AM 42.7783 -82.6117 78° East 230 265 21,000  Level Cleveland Center
02:30AM 42.8106 -82.4453 77° East 229 264 21,000  Level Cleveland Center
02:31AM 42.8253 -82.3608 77° East 229 264 21,000  Level Cleveland Center
02:32AM 42.8389 -82.2769 77° East 228 262 21,000  Level Cleveland Center
02:33AM 42.8553 -82.1939 75° East 228 262 21,000  Level Cleveland Center
02:34AM 42.8703 -82.1106 76° East 227 261 21,000  Level Cleveland Center
02:35AM 42.8858 -82.0283 75° East 227 261 21,000  Level Cleveland Center
02:36AM 42.8833 -81.9333 92° East 220 253 21,000  Level Toronto Center
02:37AM 42.9167 -81.8333 65° Northeast 220 253 21,000  Level Toronto Center
02:38AM 42.9167 -81.7667 90° East 220 253 21,000  Level Toronto Center
02:39AM 42.9333 -81.6833 75° East 220 253 21,000  Level Toronto Center
02:40AM 42.9500 -81.6167 71° East 220 253 21,000  Level Toronto Center
02:41AM 42.9667 -81.5167 77° East 230 265 21,000  Level Toronto Center
02:42AM 42.9667 -81.4333 90° East 230 265 21,000  Level Toronto Center
02:43AM 42.9833 -81.3500 75° East 220 253 21,000  Level Toronto Center
02:44AM 43.0000 -81.2667 75° East 230 265 21,000  Level Toronto Center
02:45AM 43.0167 -81.1833 75° East 220 253 21,000  Level Toronto Center
02:46AM 43.0333 -81.1167 71° East 220 253 21,000  Level Toronto Center
02:47AM 43.0333 -81.0167 90° East 220 253 21,000  Level Toronto Center
02:48AM 43.0500 -80.9333 75° East 220 253 21,000  Level Toronto Center
02:49AM 43.0667 -80.8667 71° East 220 253 21,000 -250 Level Toronto Center
02:50AM 43.0833 -80.7667 77° East 230 265 20,500 -1,050 Descending Toronto Center
02:51AM 43.1000 -80.6667 77° East 270 311 18,900 -1,650 Descending Toronto Center
02:52AM 43.1167 -80.5500 79° East 290 334 17,200 -1,700 Descending Toronto Center
02:53AM 43.1333 -80.4500 77° East 290 334 15,500 -1,700 Descending Toronto Center
02:54AM 43.1500 -80.3667 75° East 270 311 13,800 -1,550 Descending Toronto Center
02:55AM 43.1667 -80.2500 79° East 250 288 12,400 -1,350 Descending Toronto Center
02:56AM 43.2000 -80.1833 56° Northeast 240 276 11,100 -1,300 Descending Toronto Center
02:57AM 43.2167 -80.0833 77° East 240 276 9,800 -1,350 Descending Toronto Center
02:58AM 43.2500 -80.0000 61° Northeast 240 276 8,400 -1,350 Descending Toronto Center
02:59AM 43.2667 -79.9333 71° East 240 276 7,100 -1,400 Descending Toronto Center
03:00AM 43.3000 -79.8333 65° Northeast 240 276 5,600 -1,500 Descending Toronto Center
03:01AM 43.3167 -79.7667 71° East 230 265 4,100 -1,100 Descending Toronto Center
03:02AM 43.3667 -79.7500 14° North 180 207 3,400 -950 Descending Toronto Center
03:03AM 43.3833 -79.7667 324° Northwest 110 127 2,200 -1,000 Descending Toronto Center
03:04AM 43.4000 -79.8000 305° West 110 127 1,400 -550 Descending Toronto Center
03:05AM 43.4167 -79.8167 324° Northwest 110 127 1,100 -300 Descending Toronto Center

Login

Don't have an account? Register now (free) for customized features, flight alerts, and more!